createdAt,value
2023-04-26T00:00:01.863Z,99738.69
2023-04-26T00:02:30.033Z,99735.03
2023-04-26T00:05:02.262Z,99727.97
2023-04-26T00:07:32.083Z,99733.34
2023-04-26T00:10:00.098Z,99727.13
2023-04-26T00:12:28.411Z,99728.94
2023-04-26T00:14:56.451Z,99716.56
2023-04-26T00:17:25.115Z,99719.25
2023-04-26T00:19:53.095Z,99721.22
2023-04-26T00:22:21.138Z,99724.88
2023-04-26T00:24:50.712Z,99718.56
2023-04-26T00:27:19.224Z,99732.91
2023-04-26T00:29:47.454Z,99725.72
2023-04-26T00:32:15.777Z,99723.91
2023-04-26T00:34:43.854Z,99728.53
2023-04-26T00:37:11.745Z,99732.22
2023-04-26T00:39:39.820Z,99724.19
2023-04-26T00:42:09.216Z,99718.81
2023-04-26T00:44:40.128Z,99718.94
2023-04-26T00:47:08.345Z,99705.00
2023-04-26T00:49:36.365Z,99710.91
2023-04-26T00:52:04.601Z,99715.44
2023-04-26T00:54:32.567Z,99722.63
2023-04-26T00:57:00.658Z,99726.28
2023-04-26T00:59:30.577Z,99727.97
2023-04-26T01:02:00.297Z,99727.25
2023-04-26T01:04:30.299Z,99724.56
2023-04-26T01:06:58.481Z,99723.75
2023-04-26T01:09:26.473Z,99719.50
2023-04-26T01:11:56.746Z,99720.50
2023-04-26T01:14:24.865Z,99724.13
2023-04-26T01:16:54.388Z,99721.47
2023-04-26T01:19:23.462Z,99720.75
2023-04-26T01:21:51.553Z,99716.41
2023-04-26T01:24:21.065Z,99714.56
2023-04-26T01:26:49.218Z,99721.75
2023-04-26T01:29:18.499Z,99712.03
2023-04-26T01:31:47.048Z,99713.00
2023-04-26T01:34:15.356Z,99720.22
2023-04-26T01:36:43.577Z,99717.66
2023-04-26T01:39:11.654Z,99719.47
2023-04-26T01:41:40.989Z,99717.81
2023-04-26T01:44:09.089Z,99721.44
2023-04-26T01:46:37.200Z,99718.78
2023-04-26T01:49:06.042Z,99716.94
2023-04-26T01:51:34.366Z,99711.88
2023-04-26T01:54:02.404Z,99710.03
2023-04-26T01:56:30.774Z,99709.03
2023-04-26T01:59:00.340Z,99703.69
2023-04-26T02:01:28.450Z,99707.38
2023-04-26T02:03:56.539Z,99695.38
2023-04-26T02:06:24.871Z,99707.38
2023-04-26T02:08:53.770Z,99713.56
2023-04-26T02:11:23.162Z,99709.91
2023-04-26T02:13:52.998Z,99707.22
2023-04-26T02:16:24.046Z,99700.88
2023-04-26T02:18:53.515Z,99703.56
2023-04-26T02:21:22.840Z,99703.41
2023-04-26T02:23:50.981Z,99700.75
2023-04-26T02:26:19.050Z,99691.84
2023-04-26T02:28:47.086Z,99694.41
2023-04-26T02:31:15.326Z,99664.53
2023-04-26T02:33:44.767Z,99684.69
2023-04-26T02:36:13.752Z,99687.34
2023-04-26T02:38:41.821Z,99692.59
2023-04-26T02:41:10.038Z,99686.38
2023-04-26T02:43:38.060Z,99683.72
2023-04-26T02:46:08.547Z,99682.75
2023-04-26T02:48:36.843Z,99657.34
2023-04-26T02:51:07.081Z,99680.88
2023-04-26T02:53:35.298Z,99688.09
2023-04-26T02:56:03.775Z,99677.50
2023-04-26T02:58:31.807Z,99680.19
2023-04-26T03:01:01.584Z,99682.00
2023-04-26T03:03:31.095Z,99684.69
2023-04-26T03:05:59.357Z,99680.34
2023-04-26T03:08:28.849Z,99675.81
2023-04-26T03:10:56.884Z,99668.91
2023-04-26T03:13:25.218Z,99676.09
2023-04-26T03:15:55.825Z,99670.44
2023-04-26T03:18:24.038Z,99679.75
2023-04-26T03:20:52.466Z,99677.94
2023-04-26T03:23:24.250Z,99680.72
2023-04-26T03:25:54.638Z,99682.44
2023-04-26T03:28:23.403Z,99685.25
2023-04-26T03:30:51.857Z,99688.91
2023-04-26T03:33:20.841Z,99689.75
2023-04-26T03:35:48.948Z,99681.03
2023-04-26T03:38:17.374Z,99689.06
2023-04-26T03:40:46.257Z,99681.84
2023-04-26T03:43:15.577Z,99690.72
2023-04-26T03:45:43.596Z,99690.03
2023-04-26T03:48:11.738Z,99684.81
2023-04-26T03:50:40.578Z,99689.19
2023-04-26T03:53:08.547Z,99686.78
2023-04-26T03:55:37.915Z,99691.84
2023-04-26T03:58:08.062Z,99685.94
2023-04-26T04:00:38.368Z,99699.88
2023-04-26T04:03:06.869Z,99698.22
2023-04-26T04:05:35.554Z,99697.19
2023-04-26T04:08:04.634Z,99699.75
2023-04-26T04:10:32.575Z,99703.25
2023-04-26T04:13:00.690Z,99699.59
2023-04-26T04:15:28.940Z,99697.78
2023-04-26T04:17:58.549Z,99707.38
2023-04-26T04:20:26.614Z,99702.00
2023-04-26T04:22:57.819Z,99694.25
2023-04-26T04:25:26.990Z,99712.56
2023-04-26T04:27:56.636Z,99703.25
2023-04-26T04:30:26.265Z,99711.88
2023-04-26T04:32:54.491Z,99705.66
2023-04-26T04:35:28.589Z,99715.13
2023-04-26T04:37:57.788Z,99716.09
2023-04-26T04:40:27.204Z,99709.78
2023-04-26T04:42:56.137Z,99705.41
2023-04-26T04:45:26.086Z,99710.75
2023-04-26T04:47:57.161Z,99715.13
2023-04-26T04:50:26.657Z,99699.34
2023-04-26T04:52:54.832Z,99716.81
2023-04-26T04:55:23.267Z,99713.28
2023-04-26T04:57:51.389Z,99719.47
2023-04-26T05:00:20.590Z,99718.63
2023-04-26T05:02:53.645Z,99714.13
2023-04-26T05:05:21.944Z,99715.81
2023-04-26T05:07:51.410Z,99713.69
2023-04-26T05:10:19.905Z,99724.84
2023-04-26T05:12:48.184Z,99730.19
2023-04-26T05:15:16.515Z,99727.38
2023-04-26T05:17:44.490Z,99697.63
2023-04-26T05:20:19.500Z,99724.84
2023-04-26T05:22:48.277Z,99726.38
2023-04-26T05:25:17.911Z,99724.72
2023-04-26T05:27:49.738Z,99730.91
2023-04-26T05:30:27.149Z,99725.56
2023-04-26T05:33:21.880Z,99729.22
2023-04-26T05:36:17.384Z,99732.75
2023-04-26T05:38:45.487Z,99725.09
2023-04-26T05:41:14.832Z,99726.25
2023-04-26T05:43:42.963Z,99733.28
2023-04-26T05:46:11.167Z,99728.78
2023-04-26T05:48:39.360Z,99732.31
2023-04-26T05:51:07.819Z,99735.69
2023-04-26T05:53:36.113Z,99733.72
2023-04-26T05:56:04.562Z,99734.47
2023-04-26T05:58:34.650Z,99736.00
2023-04-26T06:01:04.286Z,99721.47
2023-04-26T06:03:32.452Z,99736.56
2023-04-26T06:06:00.765Z,99728.69
2023-04-26T06:08:28.887Z,99735.59
2023-04-26T06:10:56.838Z,99734.19
2023-04-26T06:13:24.934Z,99727.00
2023-04-26T06:15:54.607Z,99733.06
2023-04-26T06:18:22.842Z,99739.28
2023-04-26T06:20:50.935Z,99726.16
2023-04-26T06:23:20.345Z,99725.72
2023-04-26T06:25:48.509Z,99726.59
2023-04-26T06:28:16.769Z,99719.81
2023-04-26T06:30:44.848Z,99738.16
2023-04-26T06:33:14.236Z,99746.19
2023-04-26T06:35:42.417Z,99748.84
2023-04-26T06:38:12.679Z,99751.53
2023-04-26T06:40:40.855Z,99757.88
2023-04-26T06:43:09.923Z,99760.69
2023-04-26T06:45:44.806Z,99765.19
2023-04-26T06:48:14.958Z,99766.88
2023-04-26T06:50:42.930Z,99763.50
2023-04-26T06:53:11.009Z,99765.47
2023-04-26T06:55:39.146Z,99764.75
2023-04-26T06:58:07.185Z,99764.75
2023-04-26T07:00:35.320Z,99767.16
2023-04-26T07:03:03.528Z,99766.03
2023-04-26T07:05:33.122Z,99779.88
2023-04-26T07:08:01.134Z,99780.41
2023-04-26T07:10:29.155Z,99777.34
2023-04-26T07:12:57.164Z,99787.22
2023-04-26T07:15:25.155Z,99789.34
2023-04-26T07:17:53.165Z,99787.38
2023-04-26T07:20:22.770Z,99787.38
2023-04-26T07:22:52.270Z,99801.88
2023-04-26T07:25:20.505Z,99809.81
2023-04-26T07:27:48.460Z,99811.34
2023-04-26T07:30:16.590Z,99805.88
2023-04-26T07:32:44.825Z,99812.09
2023-04-26T07:35:16.364Z,99807.44
2023-04-26T07:37:45.409Z,99815.91
2023-04-26T07:40:15.451Z,99817.28
2023-04-26T07:42:43.457Z,99818.16
2023-04-26T07:45:12.633Z,99821.41
2023-04-26T07:47:41.007Z,99814.59
2023-04-26T07:50:10.833Z,99812.09
2023-04-26T07:52:38.941Z,99801.94
2023-04-26T07:55:07.886Z,99812.38
2023-04-26T07:57:37.740Z,99817.47
2023-04-26T08:00:09.801Z,99806.88
2023-04-26T08:02:44.941Z,99828.47
2023-04-26T08:05:14.337Z,99826.47
2023-04-26T08:07:43.180Z,99799.09
2023-04-26T08:10:12.361Z,99828.03
2023-04-26T08:12:41.756Z,99830.69
2023-04-26T08:15:10.858Z,99827.31
2023-04-26T08:17:38.984Z,99830.84
2023-04-26T08:20:09.563Z,99833.53
2023-04-26T08:22:38.167Z,99836.91
2023-04-26T08:25:07.070Z,99840.44
2023-04-26T08:27:36.872Z,99843.97
2023-04-26T08:30:07.850Z,99842.00
2023-04-26T08:32:35.807Z,99843.72
2023-04-26T08:35:03.943Z,99786.16
2023-04-26T08:37:31.981Z,99843.84
2023-04-26T08:40:00.295Z,99853.16
2023-04-26T08:42:29.980Z,99858.22
2023-04-26T08:45:02.626Z,99852.72
2023-04-26T08:47:39.854Z,99852.72
2023-04-26T08:50:09.529Z,99851.91
2023-04-26T08:52:41.114Z,99849.22
2023-04-26T08:55:10.372Z,99853.56
2023-04-26T08:57:38.827Z,99850.88
2023-04-26T09:00:10.287Z,99848.91
2023-04-26T09:02:42.813Z,99850.59
2023-04-26T09:05:12.974Z,99849.63
2023-04-26T09:07:47.137Z,99853.88
2023-04-26T09:10:19.293Z,99860.06
2023-04-26T09:12:47.570Z,99868.81
2023-04-26T09:15:16.932Z,99856.97
2023-04-26T09:17:46.518Z,99858.50
2023-04-26T09:20:23.297Z,99857.50
2023-04-26T09:22:53.008Z,99854.81
2023-04-26T09:25:29.131Z,99858.94
2023-04-26T09:27:57.464Z,99849.63
2023-04-26T09:30:25.480Z,99854.28
2023-04-26T09:32:57.245Z,99845.97
2023-04-26T09:35:33.958Z,99840.44
2023-04-26T09:38:09.639Z,99843.13
2023-04-26T09:40:41.820Z,99842.00
2023-04-26T09:43:11.628Z,99846.22
2023-04-26T09:45:49.410Z,99835.66
2023-04-26T09:48:22.519Z,99850.44
2023-04-26T09:50:53.089Z,99842.56
2023-04-26T09:53:32.080Z,99843.81
2023-04-26T09:56:08.914Z,99850.91
2023-04-26T09:58:38.633Z,99852.84
2023-04-26T10:01:08.089Z,99848.22
2023-04-26T10:03:38.710Z,99850.56
2023-04-26T10:06:07.371Z,99851.59
2023-04-26T10:08:36.410Z,99863.88
2023-04-26T10:11:07.448Z,99853.84
2023-04-26T10:13:36.051Z,99853.84
2023-04-26T10:16:04.602Z,99854.69
2023-04-26T10:18:33.391Z,99850.72
2023-04-26T10:21:08.483Z,99865.66
2023-04-26T10:23:37.723Z,99859.44
2023-04-26T10:26:06.394Z,99862.00
2023-04-26T10:29:01.484Z,99876.13
2023-04-26T10:32:03.982Z,99869.91
2023-04-26T10:34:33.495Z,99866.53
2023-04-26T10:37:13.521Z,99866.41
2023-04-26T10:39:42.549Z,99875.28
2023-04-26T10:42:24.253Z,99876.00
2023-04-26T10:44:53.171Z,99880.50
2023-04-26T10:47:32.667Z,99880.63
2023-04-26T10:50:09.050Z,99882.34
2023-04-26T10:53:01.044Z,99888.13
2023-04-26T10:55:40.946Z,99869.09
2023-04-26T10:58:30.297Z,99898.69
2023-04-26T11:01:08.512Z,99895.41
2023-04-26T11:03:37.680Z,99886.94
2023-04-26T11:06:09.583Z,99891.56
2023-04-26T11:08:39.097Z,99901.72
2023-04-26T11:11:12.305Z,99902.00
2023-04-26T11:13:41.667Z,99922.19
2023-04-26T11:16:11.085Z,99916.41
2023-04-26T11:18:42.034Z,99914.41
2023-04-26T11:21:11.359Z,99907.91
2023-04-26T11:23:41.813Z,99912.97
2023-04-26T11:26:10.685Z,99920.03
2023-04-26T11:28:40.031Z,99906.19
2023-04-26T11:31:08.557Z,99900.09
2023-04-26T11:33:36.613Z,99912.06
2023-04-26T11:36:05.380Z,99913.63
2023-04-26T11:38:33.418Z,99907.25
2023-04-26T11:41:04.526Z,99913.50
2023-04-26T11:43:36.909Z,99916.19
2023-04-26T11:46:05.835Z,99910.94
2023-04-26T11:48:36.242Z,99914.47
2023-04-26T11:51:06.120Z,99902.47
2023-04-26T11:53:38.380Z,99902.88
2023-04-26T11:56:16.201Z,99891.63
2023-04-26T11:58:46.458Z,99920.13
2023-04-26T12:01:21.832Z,99890.81
2023-04-26T12:03:52.538Z,99886.47
2023-04-26T12:06:21.186Z,99923.84
2023-04-26T12:08:52.458Z,99924.53
2023-04-26T12:11:22.232Z,99924.97
2023-04-26T12:13:50.244Z,99930.03
2023-04-26T12:16:26.368Z,99922.81
2023-04-26T12:18:56.712Z,99936.97
2023-04-26T12:21:28.929Z,99917.91
2023-04-26T12:23:58.649Z,99933.44
2023-04-26T12:29:21.876Z,99928.06
2023-04-26T12:31:49.918Z,99929.06
2023-04-26T12:34:18.031Z,99928.06
2023-04-26T12:36:46.405Z,99927.34
2023-04-26T12:39:15.799Z,99933.56
2023-04-26T12:41:44.690Z,99929.06
2023-04-26T12:44:14.330Z,99929.91
2023-04-26T12:46:43.952Z,99941.34
2023-04-26T12:49:12.047Z,99940.50
2023-04-26T12:51:40.050Z,99935.13
2023-04-26T12:54:08.056Z,99937.81
2023-04-26T12:56:38.561Z,99908.19
2023-04-26T12:59:06.698Z,99930.47
2023-04-26T13:01:34.887Z,99939.34
2023-04-26T13:04:05.848Z,99930.47
2023-04-26T13:06:34.456Z,99933.97
2023-04-26T13:09:02.737Z,99926.53
2023-04-26T13:11:30.965Z,99921.56
2023-04-26T13:13:58.949Z,99933.16
2023-04-26T13:16:27.168Z,99911.22
2023-04-26T13:18:56.029Z,99924.25
2023-04-26T13:21:26.322Z,99919.56
2023-04-26T13:23:54.398Z,99924.75
2023-04-26T13:26:22.398Z,99924.75
2023-04-26T13:28:50.416Z,99929.16
2023-04-26T13:31:18.528Z,99931.69
2023-04-26T13:33:47.368Z,99937.91
2023-04-26T13:36:15.959Z,99930.41
2023-04-26T13:38:45.540Z,99930.69
2023-04-26T13:41:13.553Z,99932.25
2023-04-26T13:43:41.630Z,99942.13
2023-04-26T13:46:09.606Z,99950.06
2023-04-26T13:48:37.781Z,99927.03
2023-04-26T13:51:07.340Z,99947.38
2023-04-26T13:53:35.494Z,99942.31
2023-04-26T13:56:05.166Z,99952.03
2023-04-26T13:58:33.176Z,99945.28
2023-04-26T14:01:01.658Z,99948.13
2023-04-26T14:03:29.789Z,99941.91
2023-04-26T14:05:57.869Z,99946.25
2023-04-26T14:08:25.890Z,99940.75
2023-04-26T14:10:54.601Z,99944.44
2023-04-26T14:13:24.118Z,99931.28
2023-04-26T14:15:52.122Z,99944.31
2023-04-26T14:18:20.100Z,99950.50
2023-04-26T14:20:48.297Z,99953.06
2023-04-26T14:23:16.959Z,99960.25
2023-04-26T14:25:44.885Z,99962.09
2023-04-26T14:28:16.435Z,99959.41
2023-04-26T14:30:46.200Z,99954.72
2023-04-26T14:33:14.526Z,99956.72
2023-04-26T14:35:42.907Z,99963.81
2023-04-26T14:38:10.979Z,99959.28
2023-04-26T14:40:38.913Z,99960.09
2023-04-26T14:43:06.970Z,99950.38
2023-04-26T14:45:44.017Z,99954.88
2023-04-26T14:48:14.291Z,99955.75
2023-04-26T14:50:43.092Z,99956.72
2023-04-26T14:53:11.232Z,99965.63
2023-04-26T14:55:39.219Z,99960.44
2023-04-26T14:58:07.251Z,99967.47
2023-04-26T15:00:35.279Z,99966.50
2023-04-26T15:03:03.541Z,99961.13
2023-04-26T15:05:33.094Z,99964.34
2023-04-26T15:08:01.378Z,99971.56
2023-04-26T15:10:29.375Z,99968.88
2023-04-26T15:12:57.376Z,99963.81
2023-04-26T15:15:25.351Z,99968.03
2023-04-26T15:17:53.444Z,99968.88
2023-04-26T15:20:21.885Z,99966.31
2023-04-26T15:22:51.410Z,99960.25
2023-04-26T15:25:19.525Z,99970.03
2023-04-26T15:27:50.218Z,99970.84
2023-04-26T15:30:18.292Z,99974.56
2023-04-26T15:32:49.629Z,99973.53
2023-04-26T15:35:17.777Z,99974.69
2023-04-26T15:37:45.786Z,99979.22
2023-04-26T15:40:15.457Z,99978.22
2023-04-26T15:42:43.490Z,99976.53
2023-04-26T15:45:12.249Z,99980.22
2023-04-26T15:47:40.308Z,99983.88
2023-04-26T15:50:09.172Z,99992.09
2023-04-26T15:52:39.426Z,99986.72
2023-04-26T15:55:08.637Z,99989.59
2023-04-26T15:57:38.249Z,99987.88
2023-04-26T16:00:08.829Z,99990.72
2023-04-26T16:02:36.943Z,99987.19
2023-04-26T16:05:06.928Z,99989.00
2023-04-26T16:07:35.063Z,99989.88
2023-04-26T16:10:03.679Z,99990.00
2023-04-26T16:12:32.285Z,99989.16
2023-04-26T16:15:01.889Z,99999.06
2023-04-26T16:17:30.678Z,99998.34
2023-04-26T16:19:59.048Z,100000.06
2023-04-26T16:22:27.232Z,99996.50
2023-04-26T16:24:55.384Z,99963.94
2023-04-26T16:27:23.641Z,100002.03
2023-04-26T16:29:52.055Z,100003.88
2023-04-26T16:32:21.736Z,100004.72
2023-04-26T16:34:50.764Z,100013.66
2023-04-26T16:37:18.971Z,99989.88
2023-04-26T16:39:47.115Z,100018.16
2023-04-26T16:42:15.203Z,100015.47
2023-04-26T16:44:43.295Z,100012.78
2023-04-26T16:47:11.400Z,100015.31
2023-04-26T16:49:40.887Z,100007.69
2023-04-26T16:52:09.134Z,100018.16
2023-04-26T16:54:37.541Z,100021.69
2023-04-26T16:57:05.877Z,100033.44
2023-04-26T16:59:34.150Z,100006.19
2023-04-26T17:02:02.372Z,100028.22
2023-04-26T17:04:30.734Z,100020.28
2023-04-26T17:07:00.522Z,100028.50
2023-04-26T17:09:28.684Z,100032.16
2023-04-26T17:11:56.827Z,100007.63
2023-04-26T17:14:24.953Z,100030.91
2023-04-26T17:16:53.186Z,100030.38
2023-04-26T17:19:21.726Z,100037.28
2023-04-26T17:21:49.707Z,100039.97
2023-04-26T17:24:19.535Z,100043.63
2023-04-26T17:26:47.743Z,100039.41
2023-04-26T17:29:15.800Z,100042.25
2023-04-26T17:31:44.519Z,100047.75
2023-04-26T17:34:12.694Z,100040.81
2023-04-26T17:36:40.740Z,100048.19
2023-04-26T17:39:09.200Z,100053.56
2023-04-26T17:41:38.602Z,100058.22
2023-04-26T17:44:06.804Z,100047.31
2023-04-26T17:46:34.804Z,100056.66
2023-04-26T17:49:03.071Z,100033.88
2023-04-26T17:51:31.151Z,100050.97
2023-04-26T17:53:59.226Z,100067.78
2023-04-26T17:56:27.233Z,100070.47
2023-04-26T17:58:56.688Z,100065.25
2023-04-26T18:01:24.782Z,100057.75
2023-04-26T18:03:53.191Z,100078.09
2023-04-26T18:06:22.692Z,100072.03
2023-04-26T18:08:50.710Z,100075.75
2023-04-26T18:11:20.869Z,100078.44
2023-04-26T18:13:49.396Z,100075.88
2023-04-26T18:16:18.853Z,100080.25
2023-04-26T18:18:46.776Z,100083.22
2023-04-26T18:21:15.004Z,100077.00
2023-04-26T18:23:45.590Z,100082.50
2023-04-26T18:26:14.216Z,100087.88
2023-04-26T18:28:44.955Z,100092.53
2023-04-26T18:31:13.659Z,100094.38
2023-04-26T18:33:43.338Z,100089.00
2023-04-26T18:36:11.602Z,100094.66
2023-04-26T18:38:39.894Z,100102.00
2023-04-26T18:41:08.221Z,100097.63
2023-04-26T18:43:36.320Z,100095.91
2023-04-26T18:46:04.459Z,100098.16
2023-04-26T18:48:32.480Z,100109.50
2023-04-26T18:51:01.942Z,100108.63
2023-04-26T18:53:29.899Z,100097.31
2023-04-26T18:55:57.979Z,100113.41
2023-04-26T18:58:26.149Z,100116.25
2023-04-26T19:00:54.174Z,100120.78
2023-04-26T19:03:22.748Z,100098.72
2023-04-26T19:05:51.246Z,100111.16
2023-04-26T19:08:21.008Z,100118.25
2023-04-26T19:10:49.116Z,100121.34
2023-04-26T19:13:18.371Z,100123.88
2023-04-26T19:15:46.967Z,100121.75
2023-04-26T19:18:15.084Z,100122.44
2023-04-26T19:20:43.103Z,100126.13
2023-04-26T19:23:12.521Z,100121.75
2023-04-26T19:25:42.002Z,100132.47
2023-04-26T19:28:10.048Z,100134.47
2023-04-26T19:30:38.288Z,100127.69
2023-04-26T19:33:07.393Z,100137.28
2023-04-26T19:35:35.662Z,100131.19
2023-04-26T19:38:05.368Z,100142.78
2023-04-26T19:40:33.522Z,100142.94
2023-04-26T19:43:03.686Z,100138.81
2023-04-26T19:45:31.912Z,100132.63
2023-04-26T19:48:00.230Z,100144.06
2023-04-26T19:50:28.264Z,100150.41
2023-04-26T19:52:56.791Z,100148.13
2023-04-26T19:55:27.244Z,100147.53
2023-04-26T19:57:57.098Z,100153.06
2023-04-26T20:00:26.464Z,100141.31
2023-04-26T20:02:54.632Z,100150.66
2023-04-26T20:05:23.012Z,100149.09
2023-04-26T20:07:51.217Z,100154.44
2023-04-26T20:10:20.008Z,100145.69
2023-04-26T20:12:48.161Z,100141.69
2023-04-26T20:15:16.702Z,100153.97
2023-04-26T20:17:46.541Z,100144.63
2023-04-26T20:20:15.035Z,100150.59
2023-04-26T20:22:43.078Z,100139.53
2023-04-26T20:25:11.452Z,100149.28
2023-04-26T20:27:39.479Z,100147.59
2023-04-26T20:30:08.755Z,100147.72
2023-04-26T20:32:36.754Z,100150.69
2023-04-26T20:35:06.961Z,100148.53
2023-04-26T20:37:35.750Z,100157.56
2023-04-26T20:40:05.007Z,100148.94
2023-04-26T20:42:33.280Z,100150.06
2023-04-26T20:45:02.394Z,100146.78
2023-04-26T20:47:30.656Z,100154.25
2023-04-26T20:49:58.727Z,100156.94
2023-04-26T20:52:28.337Z,100157.06
2023-04-26T20:54:57.318Z,100160.16
2023-04-26T20:57:25.869Z,100152.38
2023-04-26T20:59:54.092Z,100132.78
2023-04-26T21:02:22.387Z,100164.34
2023-04-26T21:04:50.702Z,100158.25
2023-04-26T21:07:18.824Z,100158.53
2023-04-26T21:09:49.205Z,100170.09
2023-04-26T21:12:17.221Z,100169.53
2023-04-26T21:14:45.886Z,100168.81
2023-04-26T21:17:14.015Z,100173.44
2023-04-26T21:19:42.040Z,100163.81
2023-04-26T21:22:10.760Z,100169.19
2023-04-26T21:24:38.983Z,100165.78
2023-04-26T21:27:08.398Z,100138.97
2023-04-26T21:29:36.610Z,100168.97
2023-04-26T21:32:04.976Z,100170.84
2023-04-26T21:34:33.077Z,100164.03
2023-04-26T21:37:01.076Z,100165.75
2023-04-26T21:39:29.403Z,100172.91
2023-04-26T21:41:57.571Z,100174.88
2023-04-26T21:44:27.067Z,100173.88
2023-04-26T21:46:55.427Z,100181.22
2023-04-26T21:49:23.504Z,100165.38
2023-04-26T21:51:51.632Z,100179.63
2023-04-26T21:54:19.709Z,100170.00
2023-04-26T21:56:47.850Z,100167.47
2023-04-26T21:59:15.866Z,100176.47
2023-04-26T22:01:45.622Z,100180.97
2023-04-26T22:04:13.940Z,100185.63
2023-04-26T22:06:42.226Z,100174.31
2023-04-26T22:09:10.560Z,100189.41
2023-04-26T22:11:38.770Z,100179.81
2023-04-26T22:14:06.985Z,100184.16
2023-04-26T22:16:35.090Z,100190.53
2023-04-26T22:19:05.150Z,100187.13
2023-04-26T22:21:33.555Z,100191.75
2023-04-26T22:24:02.320Z,100192.75
2023-04-26T22:26:30.277Z,100189.47
2023-04-26T22:28:58.456Z,100198.34
2023-04-26T22:31:26.804Z,100200.31
2023-04-26T22:33:55.151Z,100210.16
2023-04-26T22:36:25.353Z,100196.91
2023-04-26T22:38:53.718Z,100205.19
2023-04-26T22:41:21.750Z,100207.88
2023-04-26T22:43:51.535Z,100208.97
2023-04-26T22:46:21.041Z,100210.81
2023-04-26T22:48:49.328Z,100218.94
2023-04-26T22:51:17.474Z,100218.22
2023-04-26T22:53:46.988Z,100217.38
2023-04-26T22:56:15.054Z,100207.91
2023-04-26T22:58:43.069Z,100216.81
2023-04-26T23:01:11.236Z,100215.94
2023-04-26T23:03:39.366Z,100224.94
2023-04-26T23:06:08.034Z,100224.38
2023-04-26T23:08:36.375Z,100231.28
2023-04-26T23:11:09.663Z,100234.81
2023-04-26T23:13:37.911Z,100228.84
2023-04-26T23:16:06.617Z,100231.53
2023-04-26T23:18:35.219Z,100228.00
2023-04-26T23:21:03.414Z,100214.28
2023-04-26T23:23:31.661Z,100222.66
2023-04-26T23:25:59.861Z,100222.66
2023-04-26T23:28:29.236Z,100219.13
2023-04-26T23:30:57.278Z,100225.31
2023-04-26T23:33:25.640Z,100224.47
2023-04-26T23:35:56.840Z,100221.78
2023-04-26T23:38:24.869Z,100223.75
2023-04-26T23:40:52.780Z,100223.63
2023-04-26T23:43:21.377Z,100226.28
2023-04-26T23:45:50.792Z,100225.47
2023-04-26T23:48:19.091Z,100226.56
2023-04-26T23:50:47.118Z,100225.72
2023-04-26T23:53:15.109Z,100229.09
2023-04-26T23:55:43.098Z,100228.38
2023-04-26T23:58:11.166Z,100227.53
